sensor_id;sensor_type;location;lat;lon;timestamp;temperature;humidity
22852;DHT22;11592;45.460;9.240;2023-02-04T00:00:05;10.80;99.90
22852;DHT22;11592;45.460;9.240;2023-02-04T00:02:33;10.70;99.90
22852;DHT22;11592;45.460;9.240;2023-02-04T00:05:00;10.80;99.90
22852;DHT22;11592;45.460;9.240;2023-02-04T00:07:27;10.80;99.90
22852;DHT22;11592;45.460;9.240;2023-02-04T00:09:54;10.80;99.90
22852;DHT22;11592;45.460;9.240;2023-02-04T00:12:21;10.70;99.90
22852;DHT22;11592;45.460;9.240;2023-02-04T00:14:48;10.70;99.90
22852;DHT22;11592;45.460;9.240;2023-02-04T00:17:15;10.60;99.90
22852;DHT22;11592;45.460;9.240;2023-02-04T00:19:42;10.60;99.90
22852;DHT22;11592;45.460;9.240;2023-02-04T00:22:09;10.50;99.90
22852;DHT22;11592;45.460;9.240;2023-02-04T00:24:36;10.60;99.90
22852;DHT22;11592;45.460;9.240;2023-02-04T00:27:04;10.60;99.90
22852;DHT22;11592;45.460;9.240;2023-02-04T00:29:31;10.60;99.90
22852;DHT22;11592;45.460;9.240;2023-02-04T00:31:58;10.50;99.90
22852;DHT22;11592;45.460;9.240;2023-02-04T00:34:25;10.50;99.90
22852;DHT22;11592;45.460;9.240;2023-02-04T00:36:52;10.40;99.90
22852;DHT22;11592;45.460;9.240;2023-02-04T00:39:19;10.30;99.90
22852;DHT22;11592;45.460;9.240;2023-02-04T00:41:45;10.30;99.90
22852;DHT22;11592;45.460;9.240;2023-02-04T00:44:12;10.20;99.90
22852;DHT22;11592;45.460;9.240;2023-02-04T00:46:42;10.20;99.90
22852;DHT22;11592;45.460;9.240;2023-02-04T00:49:09;10.20;99.90
22852;DHT22;11592;45.460;9.240;2023-02-04T00:51:38;10.30;99.90
22852;DHT22;11592;45.460;9.240;2023-02-04T00:54:06;10.20;99.90
22852;DHT22;11592;45.460;9.240;2023-02-04T00:56:33;10.30;99.90
22852;DHT22;11592;45.460;9.240;2023-02-04T00:59:00;10.30;99.90
22852;DHT22;11592;45.460;9.240;2023-02-04T01:01:28;10.40;99.90
22852;DHT22;11592;45.460;9.240;2023-02-04T01:03:55;10.20;99.90
22852;DHT22;11592;45.460;9.240;2023-02-04T01:06:21;10.30;99.90
22852;DHT22;11592;45.460;9.240;2023-02-04T01:08:48;10.30;99.90
22852;DHT22;11592;45.460;9.240;2023-02-04T01:11:15;10.20;99.90
22852;DHT22;11592;45.460;9.240;2023-02-04T01:13:42;10.20;99.90
22852;DHT22;11592;45.460;9.240;2023-02-04T01:16:09;10.10;99.90
22852;DHT22;11592;45.460;9.240;2023-02-04T01:18:36;10.10;99.90
22852;DHT22;11592;45.460;9.240;2023-02-04T01:21:03;9.90;99.90
22852;DHT22;11592;45.460;9.240;2023-02-04T01:23:30;9.90;99.90
22852;DHT22;11592;45.460;9.240;2023-02-04T01:25:56;9.80;99.90
22852;DHT22;11592;45.460;9.240;2023-02-04T01:28:24;10.30;99.90
22852;DHT22;11592;45.460;9.240;2023-02-04T01:30:51;9.50;99.90
22852;DHT22;11592;45.460;9.240;2023-02-04T01:33:18;9.60;99.90
22852;DHT22;11592;45.460;9.240;2023-02-04T01:35:44;9.60;99.90
22852;DHT22;11592;45.460;9.240;2023-02-04T01:38:11;9.50;99.90
22852;DHT22;11592;45.460;9.240;2023-02-04T01:40:38;9.60;99.90
22852;DHT22;11592;45.460;9.240;2023-02-04T01:43:06;9.60;99.90
22852;DHT22;11592;45.460;9.240;2023-02-04T01:45:33;9.60;99.90
22852;DHT22;11592;45.460;9.240;2023-02-04T01:48:02;9.50;99.90
22852;DHT22;11592;45.460;9.240;2023-02-04T01:50:30;9.40;99.90
22852;DHT22;11592;45.460;9.240;2023-02-04T01:52:58;9.30;99.90
22852;DHT22;11592;45.460;9.240;2023-02-04T01:55:28;9.20;99.90
22852;DHT22;11592;45.460;9.240;2023-02-04T01:57:56;9.10;99.90
22852;DHT22;11592;45.460;9.240;2023-02-04T02:00:30;9.20;99.90
22852;DHT22;11592;45.460;9.240;2023-02-04T02:02:59;9.20;99.90
22852;DHT22;11592;45.460;9.240;2023-02-04T02:05:37;9.20;99.90
22852;DHT22;11592;45.460;9.240;2023-02-04T02:08:05;9.20;99.90
22852;DHT22;11592;45.460;9.240;2023-02-04T02:10:34;9.20;99.90
22852;DHT22;11592;45.460;9.240;2023-02-04T02:13:03;9.20;99.90
22852;DHT22;11592;45.460;9.240;2023-02-04T02:15:30;9.30;99.90
22852;DHT22;11592;45.460;9.240;2023-02-04T02:17:57;9.20;99.90
22852;DHT22;11592;45.460;9.240;2023-02-04T02:20:25;9.30;99.90
22852;DHT22;11592;45.460;9.240;2023-02-04T02:25:36;9.30;99.90
22852;DHT22;11592;45.460;9.240;2023-02-04T02:28:08;9.40;99.90
22852;DHT22;11592;45.460;9.240;2023-02-04T02:30:35;9.30;99.90
22852;DHT22;11592;45.460;9.240;2023-02-04T02:33:03;9.30;99.90
22852;DHT22;11592;45.460;9.240;2023-02-04T02:35:31;9.20;99.90
22852;DHT22;11592;45.460;9.240;2023-02-04T02:37:58;9.20;99.90
22852;DHT22;11592;45.460;9.240;2023-02-04T02:40:25;9.10;99.90
22852;DHT22;11592;45.460;9.240;2023-02-04T02:42:53;9.10;99.90
22852;DHT22;11592;45.460;9.240;2023-02-04T02:45:24;9.10;99.90
22852;DHT22;11592;45.460;9.240;2023-02-04T02:47:52;9.10;99.90
22852;DHT22;11592;45.460;9.240;2023-02-04T02:50:22;9.20;99.90
22852;DHT22;11592;45.460;9.240;2023-02-04T02:52:50;9.20;99.90
22852;DHT22;11592;45.460;9.240;2023-02-04T02:55:19;9.30;99.90
22852;DHT22;11592;45.460;9.240;2023-02-04T02:57:48;9.20;99.90
22852;DHT22;11592;45.460;9.240;2023-02-04T03:05:34;9.50;99.90
22852;DHT22;11592;45.460;9.240;2023-02-04T03:08:03;9.50;99.90
22852;DHT22;11592;45.460;9.240;2023-02-04T03:10:30;9.30;99.90
22852;DHT22;11592;45.460;9.240;2023-02-04T03:12:58;9.30;99.90
22852;DHT22;11592;45.460;9.240;2023-02-04T03:15:25;9.30;99.90
22852;DHT22;11592;45.460;9.240;2023-02-04T03:17:52;9.40;99.90
22852;DHT22;11592;45.460;9.240;2023-02-04T03:20:23;9.40;99.90
22852;DHT22;11592;45.460;9.240;2023-02-04T03:22:51;9.50;99.90
22852;DHT22;11592;45.460;9.240;2023-02-04T03:25:19;9.30;99.90
22852;DHT22;11592;45.460;9.240;2023-02-04T03:27:46;9.40;99.90
22852;DHT22;11592;45.460;9.240;2023-02-04T03:30:13;9.30;99.90
22852;DHT22;11592;45.460;9.240;2023-02-04T03:32:40;9.20;99.90
22852;DHT22;11592;45.460;9.240;2023-02-04T03:35:07;9.20;99.90
22852;DHT22;11592;45.460;9.240;2023-02-04T03:37:34;9.10;99.90
22852;DHT22;11592;45.460;9.240;2023-02-04T03:40:01;9.10;99.90
22852;DHT22;11592;45.460;9.240;2023-02-04T03:42:27;9.20;99.90
22852;DHT22;11592;45.460;9.240;2023-02-04T03:44:54;9.20;99.90
22852;DHT22;11592;45.460;9.240;2023-02-04T03:47:21;9.10;99.90
22852;DHT22;11592;45.460;9.240;2023-02-04T03:49:48;9.10;99.90
22852;DHT22;11592;45.460;9.240;2023-02-04T03:52:15;9.00;99.90
22852;DHT22;11592;45.460;9.240;2023-02-04T03:54:42;9.00;99.90
22852;DHT22;11592;45.460;9.240;2023-02-04T03:57:08;8.80;99.90
22852;DHT22;11592;45.460;9.240;2023-02-04T03:59:36;8.80;99.90
22852;DHT22;11592;45.460;9.240;2023-02-04T04:02:03;8.60;99.90
22852;DHT22;11592;45.460;9.240;2023-02-04T04:04:30;8.70;99.90
22852;DHT22;11592;45.460;9.240;2023-02-04T04:06:57;8.80;99.90
22852;DHT22;11592;45.460;9.240;2023-02-04T04:09:24;8.70;99.90
22852;DHT22;11592;45.460;9.240;2023-02-04T04:11:50;8.70;99.90
22852;DHT22;11592;45.460;9.240;2023-02-04T04:14:17;8.70;99.90
22852;DHT22;11592;45.460;9.240;2023-02-04T04:16:44;8.70;99.90
22852;DHT22;11592;45.460;9.240;2023-02-04T04:19:10;8.60;99.90
22852;DHT22;11592;45.460;9.240;2023-02-04T04:21:37;8.50;99.90
22852;DHT22;11592;45.460;9.240;2023-02-04T04:24:04;8.60;99.90
22852;DHT22;11592;45.460;9.240;2023-02-04T04:26:31;8.50;99.90
22852;DHT22;11592;45.460;9.240;2023-02-04T04:28:58;8.50;99.90
22852;DHT22;11592;45.460;9.240;2023-02-04T04:31:25;8.40;99.90
22852;DHT22;11592;45.460;9.240;2023-02-04T04:33:51;8.40;99.90
22852;DHT22;11592;45.460;9.240;2023-02-04T04:36:18;8.40;99.90
22852;DHT22;11592;45.460;9.240;2023-02-04T04:38:45;8.50;99.90
22852;DHT22;11592;45.460;9.240;2023-02-04T04:41:12;8.70;99.90
22852;DHT22;11592;45.460;9.240;2023-02-04T04:43:39;8.70;99.90
22852;DHT22;11592;45.460;9.240;2023-02-04T04:46:05;8.80;99.90
22852;DHT22;11592;45.460;9.240;2023-02-04T04:48:32;8.70;99.90
22852;DHT22;11592;45.460;9.240;2023-02-04T04:50:59;8.70;99.90
22852;DHT22;11592;45.460;9.240;2023-02-04T04:53:25;8.70;99.90
22852;DHT22;11592;45.460;9.240;2023-02-04T04:55:52;8.60;99.90
22852;DHT22;11592;45.460;9.240;2023-02-04T04:58:19;8.70;99.90
22852;DHT22;11592;45.460;9.240;2023-02-04T05:00:46;8.50;99.90
22852;DHT22;11592;45.460;9.240;2023-02-04T05:03:13;8.60;99.90
22852;DHT22;11592;45.460;9.240;2023-02-04T05:05:40;8.50;99.90
22852;DHT22;11592;45.460;9.240;2023-02-04T05:08:07;8.60;99.90
22852;DHT22;11592;45.460;9.240;2023-02-04T05:10:42;8.60;99.90
22852;DHT22;11592;45.460;9.240;2023-02-04T05:13:09;8.70;99.90
22852;DHT22;11592;45.460;9.240;2023-02-04T05:15:36;8.60;99.90
22852;DHT22;11592;45.460;9.240;2023-02-04T05:18:03;8.70;99.90
22852;DHT22;11592;45.460;9.240;2023-02-04T05:20:30;8.80;99.90
22852;DHT22;11592;45.460;9.240;2023-02-04T05:22:58;8.80;99.90
22852;DHT22;11592;45.460;9.240;2023-02-04T05:25:30;8.90;99.90
22852;DHT22;11592;45.460;9.240;2023-02-04T05:27:57;8.70;99.90
22852;DHT22;11592;45.460;9.240;2023-02-04T05:30:24;8.60;99.90
22852;DHT22;11592;45.460;9.240;2023-02-04T05:32:51;8.50;99.90
22852;DHT22;11592;45.460;9.240;2023-02-04T05:35:18;8.50;99.90
22852;DHT22;11592;45.460;9.240;2023-02-04T05:37:45;8.50;99.90
22852;DHT22;11592;45.460;9.240;2023-02-04T05:40:12;8.50;99.90
22852;DHT22;11592;45.460;9.240;2023-02-04T05:42:39;8.40;99.90
22852;DHT22;11592;45.460;9.240;2023-02-04T05:45:16;8.50;99.90
22852;DHT22;11592;45.460;9.240;2023-02-04T05:47:44;8.40;99.90
22852;DHT22;11592;45.460;9.240;2023-02-04T05:50:11;8.40;99.90
22852;DHT22;11592;45.460;9.240;2023-02-04T05:52:38;8.50;99.90
22852;DHT22;11592;45.460;9.240;2023-02-04T05:55:07;8.50;99.90
22852;DHT22;11592;45.460;9.240;2023-02-04T05:57:34;8.50;99.90
22852;DHT22;11592;45.460;9.240;2023-02-04T06:00:01;8.40;99.90
22852;DHT22;11592;45.460;9.240;2023-02-04T06:02:27;8.40;99.90
22852;DHT22;11592;45.460;9.240;2023-02-04T06:04:54;8.40;99.90
22852;DHT22;11592;45.460;9.240;2023-02-04T06:07:21;8.40;99.90
22852;DHT22;11592;45.460;9.240;2023-02-04T06:09:48;8.20;99.90
22852;DHT22;11592;45.460;9.240;2023-02-04T06:12:14;8.10;99.90
22852;DHT22;11592;45.460;9.240;2023-02-04T06:14:41;8.10;99.90
22852;DHT22;11592;45.460;9.240;2023-02-04T06:17:08;8.10;99.90
22852;DHT22;11592;45.460;9.240;2023-02-04T06:19:35;8.10;99.90
22852;DHT22;11592;45.460;9.240;2023-02-04T06:22:01;8.00;99.90
22852;DHT22;11592;45.460;9.240;2023-02-04T06:24:28;8.10;99.90
22852;DHT22;11592;45.460;9.240;2023-02-04T06:26:55;8.00;99.90
22852;DHT22;11592;45.460;9.240;2023-02-04T06:29:22;8.00;99.90
22852;DHT22;11592;45.460;9.240;2023-02-04T06:31:48;8.10;99.90
22852;DHT22;11592;45.460;9.240;2023-02-04T06:34:15;8.00;99.90
22852;DHT22;11592;45.460;9.240;2023-02-04T06:36:42;8.00;99.90
22852;DHT22;11592;45.460;9.240;2023-02-04T06:39:09;8.10;99.90
22852;DHT22;11592;45.460;9.240;2023-02-04T06:41:36;8.10;99.90
22852;DHT22;11592;45.460;9.240;2023-02-04T06:44:03;8.20;99.90
22852;DHT22;11592;45.460;9.240;2023-02-04T06:46:30;8.40;99.90
22852;DHT22;11592;45.460;9.240;2023-02-04T06:48:56;8.30;99.90
22852;DHT22;11592;45.460;9.240;2023-02-04T06:51:23;8.30;99.90
22852;DHT22;11592;45.460;9.240;2023-02-04T06:53:50;8.20;99.90
22852;DHT22;11592;45.460;9.240;2023-02-04T06:56:18;8.10;99.90
22852;DHT22;11592;45.460;9.240;2023-02-04T06:58:44;8.10;99.90
22852;DHT22;11592;45.460;9.240;2023-02-04T07:01:11;8.10;99.90
22852;DHT22;11592;45.460;9.240;2023-02-04T07:03:38;7.90;99.90
22852;DHT22;11592;45.460;9.240;2023-02-04T07:06:05;7.90;99.90
22852;DHT22;11592;45.460;9.240;2023-02-04T07:08:31;7.90;99.90
22852;DHT22;11592;45.460;9.240;2023-02-04T07:10:59;8.00;99.90
22852;DHT22;11592;45.460;9.240;2023-02-04T07:13:26;8.00;99.90
22852;DHT22;11592;45.460;9.240;2023-02-04T07:15:53;8.00;99.90
22852;DHT22;11592;45.460;9.240;2023-02-04T07:18:20;7.90;99.90
22852;DHT22;11592;45.460;9.240;2023-02-04T07:20:46;7.90;99.90
22852;DHT22;11592;45.460;9.240;2023-02-04T07:23:13;8.00;99.90
22852;DHT22;11592;45.460;9.240;2023-02-04T07:25:40;8.10;99.90
22852;DHT22;11592;45.460;9.240;2023-02-04T07:28:07;8.20;99.90
22852;DHT22;11592;45.460;9.240;2023-02-04T07:30:34;8.30;99.90
22852;DHT22;11592;45.460;9.240;2023-02-04T07:33:01;8.40;99.90
22852;DHT22;11592;45.460;9.240;2023-02-04T07:35:28;8.60;99.90
22852;DHT22;11592;45.460;9.240;2023-02-04T07:37:55;8.70;99.90
22852;DHT22;11592;45.460;9.240;2023-02-04T07:40:21;8.80;99.90
22852;DHT22;11592;45.460;9.240;2023-02-04T07:42:48;8.80;99.90
22852;DHT22;11592;45.460;9.240;2023-02-04T07:45:15;9.00;99.90
22852;DHT22;11592;45.460;9.240;2023-02-04T07:47:42;9.00;99.90
22852;DHT22;11592;45.460;9.240;2023-02-04T07:50:09;9.10;99.90
22852;DHT22;11592;45.460;9.240;2023-02-04T07:52:36;9.20;99.90
22852;DHT22;11592;45.460;9.240;2023-02-04T07:55:02;9.30;99.90
22852;DHT22;11592;45.460;9.240;2023-02-04T07:57:29;9.50;99.90
22852;DHT22;11592;45.460;9.240;2023-02-04T07:59:56;9.50;99.90
22852;DHT22;11592;45.460;9.240;2023-02-04T08:02:23;9.60;99.90
22852;DHT22;11592;45.460;9.240;2023-02-04T08:04:50;9.70;99.90
22852;DHT22;11592;45.460;9.240;2023-02-04T08:07:17;9.70;99.90
22852;DHT22;11592;45.460;9.240;2023-02-04T08:09:44;9.80;99.90
22852;DHT22;11592;45.460;9.240;2023-02-04T08:12:12;9.80;99.90
22852;DHT22;11592;45.460;9.240;2023-02-04T08:14:39;10.00;99.90
22852;DHT22;11592;45.460;9.240;2023-02-04T08:17:05;10.00;99.90
22852;DHT22;11592;45.460;9.240;2023-02-04T08:19:32;10.00;99.90
22852;DHT22;11592;45.460;9.240;2023-02-04T08:21:59;10.10;99.90
22852;DHT22;11592;45.460;9.240;2023-02-04T08:24:26;10.20;99.90
22852;DHT22;11592;45.460;9.240;2023-02-04T08:26:52;10.30;99.90
22852;DHT22;11592;45.460;9.240;2023-02-04T08:29:19;10.50;99.90
22852;DHT22;11592;45.460;9.240;2023-02-04T08:31:46;10.40;99.90
22852;DHT22;11592;45.460;9.240;2023-02-04T08:34:13;10.40;99.90
22852;DHT22;11592;45.460;9.240;2023-02-04T08:36:40;10.40;99.90
22852;DHT22;11592;45.460;9.240;2023-02-04T08:39:07;10.40;99.90
22852;DHT22;11592;45.460;9.240;2023-02-04T08:41:33;10.50;99.90
22852;DHT22;11592;45.460;9.240;2023-02-04T08:44:00;10.60;99.90
22852;DHT22;11592;45.460;9.240;2023-02-04T08:46:27;10.60;99.90
22852;DHT22;11592;45.460;9.240;2023-02-04T08:48:54;10.80;99.90
22852;DHT22;11592;45.460;9.240;2023-02-04T08:51:21;10.90;99.90
22852;DHT22;11592;45.460;9.240;2023-02-04T08:53:48;11.10;99.90
22852;DHT22;11592;45.460;9.240;2023-02-04T08:56:15;11.30;99.90
22852;DHT22;11592;45.460;9.240;2023-02-04T08:58:43;11.40;99.90
22852;DHT22;11592;45.460;9.240;2023-02-04T09:01:10;11.40;99.90
22852;DHT22;11592;45.460;9.240;2023-02-04T09:03:38;11.50;99.90
22852;DHT22;11592;45.460;9.240;2023-02-04T09:06:06;11.50;99.90
22852;DHT22;11592;45.460;9.240;2023-02-04T09:08:34;11.50;99.90
22852;DHT22;11592;45.460;9.240;2023-02-04T09:11:01;11.70;99.90
22852;DHT22;11592;45.460;9.240;2023-02-04T09:13:28;12.00;99.90
22852;DHT22;11592;45.460;9.240;2023-02-04T09:15:55;12.20;99.90
22852;DHT22;11592;45.460;9.240;2023-02-04T09:18:22;12.50;99.90
22852;DHT22;11592;45.460;9.240;2023-02-04T09:20:51;12.70;99.90
22852;DHT22;11592;45.460;9.240;2023-02-04T09:23:18;13.00;99.90
22852;DHT22;11592;45.460;9.240;2023-02-04T09:25:45;13.20;99.90
22852;DHT22;11592;45.460;9.240;2023-02-04T09:28:13;13.40;99.90
22852;DHT22;11592;45.460;9.240;2023-02-04T09:30:44;13.60;99.90
22852;DHT22;11592;45.460;9.240;2023-02-04T09:33:12;13.90;99.90
22852;DHT22;11592;45.460;9.240;2023-02-04T09:35:39;14.20;99.70
22852;DHT22;11592;45.460;9.240;2023-02-04T09:38:06;14.60;98.60
22852;DHT22;11592;45.460;9.240;2023-02-04T09:40:36;15.00;97.50
22852;DHT22;11592;45.460;9.240;2023-02-04T09:43:04;15.40;96.40
22852;DHT22;11592;45.460;9.240;2023-02-04T09:45:33;15.70;95.40
22852;DHT22;11592;45.460;9.240;2023-02-04T09:48:04;15.90;94.50
22852;DHT22;11592;45.460;9.240;2023-02-04T09:50:33;16.20;93.70
22852;DHT22;11592;45.460;9.240;2023-02-04T09:53:03;16.40;93.10
22852;DHT22;11592;45.460;9.240;2023-02-04T09:55:36;16.60;92.50
22852;DHT22;11592;45.460;9.240;2023-02-04T09:58:17;16.80;91.80
22852;DHT22;11592;45.460;9.240;2023-02-04T10:00:46;16.90;91.30
22852;DHT22;11592;45.460;9.240;2023-02-04T10:03:16;17.00;90.50
22852;DHT22;11592;45.460;9.240;2023-02-04T10:05:45;17.30;90.30
22852;DHT22;11592;45.460;9.240;2023-02-04T10:08:17;17.30;89.50
22852;DHT22;11592;45.460;9.240;2023-02-04T10:10:47;17.40;88.50
22852;DHT22;11592;45.460;9.240;2023-02-04T10:13:20;17.60;86.60
22852;DHT22;11592;45.460;9.240;2023-02-04T10:15:49;17.60;85.60
22852;DHT22;11592;45.460;9.240;2023-02-04T10:18:28;17.70;84.30
22852;DHT22;11592;45.460;9.240;2023-02-04T10:21:05;17.80;84.30
22852;DHT22;11592;45.460;9.240;2023-02-04T10:23:34;17.90;83.70
22852;DHT22;11592;45.460;9.240;2023-02-04T10:26:02;18.00;82.80
22852;DHT22;11592;45.460;9.240;2023-02-04T10:28:36;18.20;81.60
22852;DHT22;11592;45.460;9.240;2023-02-04T10:31:03;18.30;81.00
22852;DHT22;11592;45.460;9.240;2023-02-04T10:33:30;18.50;79.90
22852;DHT22;11592;45.460;9.240;2023-02-04T10:35:58;18.70;79.60
22852;DHT22;11592;45.460;9.240;2023-02-04T10:38:25;18.80;77.80
22852;DHT22;11592;45.460;9.240;2023-02-04T10:41:02;18.90;76.20
22852;DHT22;11592;45.460;9.240;2023-02-04T10:43:30;19.00;75.00
22852;DHT22;11592;45.460;9.240;2023-02-04T10:46:00;19.00;75.20
22852;DHT22;11592;45.460;9.240;2023-02-04T10:48:28;19.10;74.30
22852;DHT22;11592;45.460;9.240;2023-02-04T10:50:57;19.10;74.80
22852;DHT22;11592;45.460;9.240;2023-02-04T10:53:25;19.10;77.30
22852;DHT22;11592;45.460;9.240;2023-02-04T10:56:16;19.00;85.20
22852;DHT22;11592;45.460;9.240;2023-02-04T10:58:43;18.80;89.90
22852;DHT22;11592;45.460;9.240;2023-02-04T11:01:12;18.70;85.80
22852;DHT22;11592;45.460;9.240;2023-02-04T11:03:40;19.00;88.20
22852;DHT22;11592;45.460;9.240;2023-02-04T11:06:11;19.40;84.30
22852;DHT22;11592;45.460;9.240;2023-02-04T11:08:39;20.30;74.20
22852;DHT22;11592;45.460;9.240;2023-02-04T11:11:19;21.00;68.90
22852;DHT22;11592;45.460;9.240;2023-02-04T11:18:53;24.20;55.80
22852;DHT22;11592;45.460;9.240;2023-02-04T11:23:47;23.30;53.50
22852;DHT22;11592;45.460;9.240;2023-02-04T11:26:16;23.20;53.30
22852;DHT22;11592;45.460;9.240;2023-02-04T11:33:49;33.00;38.20
22852;DHT22;11592;45.460;9.240;2023-02-04T11:36:16;35.40;31.90
22852;DHT22;11592;45.460;9.240;2023-02-04T11:38:48;37.70;28.60
22852;DHT22;11592;45.460;9.240;2023-02-04T11:41:27;39.80;25.70
22852;DHT22;11592;45.460;9.240;2023-02-04T11:43:57;41.50;24.10
22852;DHT22;11592;45.460;9.240;2023-02-04T11:46:27;42.40;23.00
22852;DHT22;11592;45.460;9.240;2023-02-04T11:48:56;43.10;21.40
22852;DHT22;11592;45.460;9.240;2023-02-04T11:51:29;43.80;21.20
22852;DHT22;11592;45.460;9.240;2023-02-04T11:53:57;43.90;20.00
22852;DHT22;11592;45.460;9.240;2023-02-04T11:56:27;43.90;19.50
22852;DHT22;11592;45.460;9.240;2023-02-04T11:58:56;44.20;19.30
22852;DHT22;11592;45.460;9.240;2023-02-04T12:01:31;44.80;18.80
22852;DHT22;11592;45.460;9.240;2023-02-04T12:04:00;43.80;19.50
22852;DHT22;11592;45.460;9.240;2023-02-04T12:06:31;43.70;19.10
22852;DHT22;11592;45.460;9.240;2023-02-04T12:09:27;44.00;18.60
22852;DHT22;11592;45.460;9.240;2023-02-04T12:12:02;44.10;18.40
22852;DHT22;11592;45.460;9.240;2023-02-04T12:14:33;44.20;18.40
22852;DHT22;11592;45.460;9.240;2023-02-04T12:17:11;43.70;18.70
22852;DHT22;11592;45.460;9.240;2023-02-04T12:19:38;43.10;18.50
22852;DHT22;11592;45.460;9.240;2023-02-04T12:22:05;43.60;18.00
22852;DHT22;11592;45.460;9.240;2023-02-04T12:24:31;44.40;18.10
22852;DHT22;11592;45.460;9.240;2023-02-04T12:26:58;44.50;17.70
22852;DHT22;11592;45.460;9.240;2023-02-04T12:29:25;44.50;17.70
22852;DHT22;11592;45.460;9.240;2023-02-04T12:31:51;44.70;17.80
22852;DHT22;11592;45.460;9.240;2023-02-04T12:34:18;44.80;17.30
22852;DHT22;11592;45.460;9.240;2023-02-04T12:36:45;44.40;17.20
22852;DHT22;11592;45.460;9.240;2023-02-04T12:39:12;44.50;17.20
22852;DHT22;11592;45.460;9.240;2023-02-04T12:41:39;43.80;17.30
22852;DHT22;11592;45.460;9.240;2023-02-04T12:44:06;44.40;16.80
22852;DHT22;11592;45.460;9.240;2023-02-04T12:46:32;44.80;16.80
22852;DHT22;11592;45.460;9.240;2023-02-04T12:48:59;44.90;16.50
22852;DHT22;11592;45.460;9.240;2023-02-04T12:51:26;45.50;16.50
22852;DHT22;11592;45.460;9.240;2023-02-04T12:53:53;45.30;16.20
22852;DHT22;11592;45.460;9.240;2023-02-04T12:56:19;45.50;15.90
22852;DHT22;11592;45.460;9.240;2023-02-04T12:58:49;45.50;15.70
22852;DHT22;11592;45.460;9.240;2023-02-04T13:01:15;45.20;16.00
22852;DHT22;11592;45.460;9.240;2023-02-04T13:03:42;44.90;15.80
22852;DHT22;11592;45.460;9.240;2023-02-04T13:06:09;45.00;15.90
22852;DHT22;11592;45.460;9.240;2023-02-04T13:08:36;45.30;15.50
22852;DHT22;11592;45.460;9.240;2023-02-04T13:11:02;45.50;15.40
22852;DHT22;11592;45.460;9.240;2023-02-04T13:13:29;45.50;15.30
22852;DHT22;11592;45.460;9.240;2023-02-04T13:15:56;45.60;15.30
22852;DHT22;11592;45.460;9.240;2023-02-04T13:18:23;45.00;15.80
22852;DHT22;11592;45.460;9.240;2023-02-04T13:20:49;45.20;15.50
22852;DHT22;11592;45.460;9.240;2023-02-04T13:23:16;45.00;15.80
22852;DHT22;11592;45.460;9.240;2023-02-04T13:25:43;45.20;15.20
22852;DHT22;11592;45.460;9.240;2023-02-04T13:28:10;44.20;16.20
22852;DHT22;11592;45.460;9.240;2023-02-04T13:30:37;43.50;16.00
22852;DHT22;11592;45.460;9.240;2023-02-04T13:33:04;42.50;16.20
22852;DHT22;11592;45.460;9.240;2023-02-04T13:35:31;42.20;16.50
22852;DHT22;11592;45.460;9.240;2023-02-04T13:37:59;41.90;17.00
22852;DHT22;11592;45.460;9.240;2023-02-04T13:40:26;41.40;17.00
22852;DHT22;11592;45.460;9.240;2023-02-04T13:42:53;41.70;17.00
22852;DHT22;11592;45.460;9.240;2023-02-04T13:45:20;41.80;16.60
22852;DHT22;11592;45.460;9.240;2023-02-04T13:47:47;42.10;16.30
22852;DHT22;11592;45.460;9.240;2023-02-04T13:50:15;42.50;16.20
22852;DHT22;11592;45.460;9.240;2023-02-04T13:52:42;42.70;16.00
22852;DHT22;11592;45.460;9.240;2023-02-04T13:55:09;42.40;16.00
22852;DHT22;11592;45.460;9.240;2023-02-04T13:57:36;41.90;16.30
22852;DHT22;11592;45.460;9.240;2023-02-04T14:00:05;41.20;16.80
22852;DHT22;11592;45.460;9.240;2023-02-04T14:02:33;40.90;16.80
22852;DHT22;11592;45.460;9.240;2023-02-04T14:05:00;40.20;16.70
22852;DHT22;11592;45.460;9.240;2023-02-04T14:07:27;40.10;17.90
22852;DHT22;11592;45.460;9.240;2023-02-04T14:09:54;40.20;17.20
22852;DHT22;11592;45.460;9.240;2023-02-04T14:12:20;40.70;16.60
22852;DHT22;11592;45.460;9.240;2023-02-04T14:14:47;40.50;17.10
22852;DHT22;11592;45.460;9.240;2023-02-04T14:17:14;40.20;17.10
22852;DHT22;11592;45.460;9.240;2023-02-04T14:19:41;39.90;17.50
22852;DHT22;11592;45.460;9.240;2023-02-04T14:22:08;39.90;17.20
22852;DHT22;11592;45.460;9.240;2023-02-04T14:24:38;39.90;17.00
22852;DHT22;11592;45.460;9.240;2023-02-04T14:27:08;40.20;17.50
22852;DHT22;11592;45.460;9.240;2023-02-04T14:29:35;40.10;17.70
22852;DHT22;11592;45.460;9.240;2023-02-04T14:32:02;39.70;17.30
22852;DHT22;11592;45.460;9.240;2023-02-04T14:34:30;39.60;17.40
22852;DHT22;11592;45.460;9.240;2023-02-04T14:36:56;39.90;17.20
22852;DHT22;11592;45.460;9.240;2023-02-04T14:39:23;39.60;17.20
22852;DHT22;11592;45.460;9.240;2023-02-04T14:41:50;40.30;16.90
22852;DHT22;11592;45.460;9.240;2023-02-04T14:44:17;41.10;16.10
22852;DHT22;11592;45.460;9.240;2023-02-04T14:46:47;41.50;15.70
22852;DHT22;11592;45.460;9.240;2023-02-04T14:49:15;41.20;15.50
22852;DHT22;11592;45.460;9.240;2023-02-04T14:51:42;38.60;15.80
22852;DHT22;11592;45.460;9.240;2023-02-04T14:54:09;35.50;17.20
22852;DHT22;11592;45.460;9.240;2023-02-04T14:56:36;32.70;18.40
22852;DHT22;11592;45.460;9.240;2023-02-04T14:59:04;30.40;19.90
22852;DHT22;11592;45.460;9.240;2023-02-04T15:01:31;28.90;20.90
22852;DHT22;11592;45.460;9.240;2023-02-04T15:03:58;27.80;21.70
22852;DHT22;11592;45.460;9.240;2023-02-04T15:06:25;26.80;22.30
22852;DHT22;11592;45.460;9.240;2023-02-04T15:08:51;26.00;22.90
22852;DHT22;11592;45.460;9.240;2023-02-04T15:11:18;25.30;23.20
22852;DHT22;11592;45.460;9.240;2023-02-04T15:13:45;24.60;23.90
22852;DHT22;11592;45.460;9.240;2023-02-04T15:16:12;24.40;24.20
22852;DHT22;11592;45.460;9.240;2023-02-04T15:18:40;24.20;24.30
22852;DHT22;11592;45.460;9.240;2023-02-04T15:21:08;24.00;23.90
22852;DHT22;11592;45.460;9.240;2023-02-04T15:23:35;23.70;23.80
22852;DHT22;11592;45.460;9.240;2023-02-04T15:26:02;23.50;24.20
22852;DHT22;11592;45.460;9.240;2023-02-04T15:28:29;23.30;23.80
22852;DHT22;11592;45.460;9.240;2023-02-04T15:30:57;23.20;23.80
22852;DHT22;11592;45.460;9.240;2023-02-04T15:33:24;23.10;23.40
22852;DHT22;11592;45.460;9.240;2023-02-04T15:35:51;22.90;22.70
22852;DHT22;11592;45.460;9.240;2023-02-04T15:38:17;22.70;22.70
22852;DHT22;11592;45.460;9.240;2023-02-04T15:40:44;22.60;22.50
22852;DHT22;11592;45.460;9.240;2023-02-04T15:43:11;22.50;22.40
22852;DHT22;11592;45.460;9.240;2023-02-04T15:45:38;22.40;22.40
22852;DHT22;11592;45.460;9.240;2023-02-04T15:48:07;22.30;22.40
22852;DHT22;11592;45.460;9.240;2023-02-04T15:50:34;22.20;22.50
22852;DHT22;11592;45.460;9.240;2023-02-04T15:53:02;22.00;22.30
22852;DHT22;11592;45.460;9.240;2023-02-04T15:55:29;22.00;22.10
22852;DHT22;11592;45.460;9.240;2023-02-04T15:57:56;21.80;21.70
22852;DHT22;11592;45.460;9.240;2023-02-04T16:00:23;21.60;21.10